Time;durP1;ratioP1;P1;durP2;ratioP2;P2;SDS_P1;SDS_P2;PMS_P1;PMS_P2;Temp;Humidity;BMP_temperature;BMP_pressure;BME280_temperature;BME280_humidity;BME280_pressure;Samples;Min_cycle;Max_cycle;Signal;HPM_P1;HPM_P2
2021/05/12 00:01:44;;;;;;;6.50;1.60;;;10.50;66.00;;;;;;4998033;28;20041;-81
2021/05/12 00:04:10;;;;;;;5.60;1.60;;;10.50;65.80;;;;;;4998584;28;20027;-82
2021/05/12 00:06:35;;;;;;;5.93;1.40;;;10.50;66.00;;;;;;4997839;28;20038;-82
2021/05/12 00:09:01;;;;;;;6.85;1.70;;;10.50;66.00;;;;;;4987910;28;20023;-82
2021/05/12 00:11:27;;;;;;;7.25;1.80;;;10.50;65.40;;;;;;4997314;28;20038;-82
2021/05/12 00:13:53;;;;;;;5.38;1.55;;;10.40;65.10;;;;;;4997957;28;20058;-81
2021/05/12 00:16:19;;;;;;;8.57;1.67;;;10.50;65.50;;;;;;4997965;28;20054;-81
2021/05/12 00:18:46;;;;;;;6.60;1.52;;;10.40;65.20;;;;;;4998799;28;20496;-81
2021/05/12 00:21:23;;;;;;;6.68;2.03;;;10.40;65.00;;;;;;4997452;28;20030;-82
2021/05/12 00:24:00;;;;;;;5.18;1.67;;;10.40;65.60;;;;;;4998347;28;20022;-81
2021/05/12 00:26:37;;;;;;;5.60;1.50;;;10.40;66.00;;;;;;4986238;28;20053;-81
2021/05/12 00:29:09;;;;;;;8.38;2.63;;;10.30;65.20;;;;;;4997903;28;20029;-82
2021/05/12 00:31:35;;;;;;;8.93;2.00;;;10.30;65.40;;;;;;4997372;28;20030;-81
2021/05/12 00:34:02;;;;;;;5.57;1.85;;;10.30;65.10;;;;;;4997979;28;20031;-81
2021/05/12 00:36:28;;;;;;;6.72;2.05;;;10.30;65.80;;;;;;4998291;28;20366;-81
2021/05/12 00:38:56;;;;;;;4.57;1.50;;;10.20;65.40;;;;;;4997766;28;20138;-81
2021/05/12 00:41:22;;;;;;;6.15;1.77;;;10.20;65.00;;;;;;4979901;28;20158;-81
2021/05/12 00:43:48;;;;;;;3.90;1.30;;;10.20;64.60;;;;;;4997848;28;20051;-81
2021/05/12 00:46:14;;;;;;;6.85;1.80;;;10.20;64.70;;;;;;4997484;28;20034;-81
2021/05/12 00:48:40;;;;;;;4.88;1.55;;;10.20;64.70;;;;;;4998060;28;20027;-81
2021/05/12 00:51:07;;;;;;;5.68;2.08;;;10.20;64.80;;;;;;4996929;28;20077;-82
2021/05/12 00:53:34;;;;;;;5.65;1.38;;;10.20;64.40;;;;;;4997416;28;20030;-81
2021/05/12 00:56:00;;;;;;;4.93;1.65;;;10.10;63.80;;;;;;4997322;28;20019;-81
2021/05/12 00:58:26;;;;;;;7.97;2.05;;;10.10;63.40;;;;;;4997731;28;20022;-81
2021/05/12 01:00:52;;;;;;;3.55;1.10;;;10.10;63.40;;;;;;4996973;28;20018;-81
2021/05/12 01:03:18;;;;;;;6.35;1.60;;;10.00;63.40;;;;;;4997331;28;20033;-81
2021/05/12 01:05:49;;;;;;;4.40;1.35;;;10.00;63.60;;;;;;4996593;28;20022;-81
2021/05/12 01:08:19;;;;;;;9.15;2.85;;;9.90;64.90;;;;;;4997995;28;20446;-81
2021/05/12 01:10:46;;;;;;;6.38;2.20;;;10.00;65.00;;;;;;4990523;28;20022;-81
2021/05/12 01:13:13;;;;;;;3.92;1.27;;;9.90;65.80;;;;;;4998204;28;20022;-81
2021/05/12 01:15:40;;;;;;;5.25;1.55;;;10.00;66.10;;;;;;5001513;28;20035;-81
2021/05/12 01:18:11;;;;;;;7.13;1.67;;;9.90;65.80;;;;;;5001565;28;20057;-81
2021/05/12 01:20:56;;;;;;;7.30;1.45;;;9.90;66.10;;;;;;5001474;28;20105;-81
2021/05/12 01:23:26;;;;;;;4.47;1.30;;;9.80;65.50;;;;;;5001073;28;20026;-81
2021/05/12 01:25:54;;;;;;;4.57;1.60;;;9.80;65.60;;;;;;5000865;28;21633;-81
2021/05/12 01:28:23;;;;;;;6.07;1.30;;;9.80;65.80;;;;;;5001335;28;20022;-81
2021/05/12 01:31:02;;;;;;;4.78;1.48;;;9.70;65.30;;;;;;4994776;28;20081;-81
2021/05/12 01:33:28;;;;;;;3.97;1.20;;;9.70;64.80;;;;;;5000095;28;20030;-81
2021/05/12 01:35:54;;;;;;;5.43;1.20;;;9.70;64.50;;;;;;5000652;28;20022;-81
2021/05/12 01:38:20;;;;;;;5.10;1.52;;;9.70;64.50;;;;;;4983378;28;20178;-81
2021/05/12 01:40:48;;;;;;;5.00;1.48;;;9.70;64.70;;;;;;5000918;28;20477;-81
2021/05/12 01:43:14;;;;;;;3.92;1.25;;;9.60;64.80;;;;;;5000416;28;20031;-81
2021/05/12 01:45:40;;;;;;;7.03;1.60;;;9.60;64.90;;;;;;5000992;28;20037;-81
2021/05/12 01:48:08;;;;;;;5.35;1.40;;;9.60;65.10;;;;;;5001383;28;20023;-81
2021/05/12 01:50:35;;;;;;;5.47;1.27;;;9.50;65.10;;;;;;5000307;28;20046;-81
2021/05/12 01:53:01;;;;;;;3.28;1.23;;;9.50;64.80;;;;;;5000286;28;20037;-81
2021/05/12 01:55:27;;;;;;;3.72;1.38;;;9.50;65.40;;;;;;5000353;28;20037;-80
2021/05/12 01:57:53;;;;;;;4.78;1.50;;;9.40;65.60;;;;;;5000285;28;20129;-81
2021/05/12 02:00:28;;;;;;;6.18;2.08;;;9.40;65.80;;;;;;5000711;28;20058;-81
2021/05/12 02:02:54;;;;;;;7.72;1.63;;;9.30;66.00;;;;;;5000522;28;20026;-81
2021/05/12 02:05:22;;;;;;;4.85;1.35;;;9.40;66.20;;;;;;5000812;28;20026;-81
2021/05/12 02:07:56;;;;;;;6.13;1.60;;;9.30;66.50;;;;;;5000133;28;20389;-81
2021/05/12 02:10:22;;;;;;;4.88;1.77;;;9.30;67.20;;;;;;5001178;28;20473;-81
2021/05/12 02:12:48;;;;;;;4.60;1.52;;;9.20;67.50;;;;;;5000306;28;20065;-81
2021/05/12 02:15:14;;;;;;;4.45;1.67;;;9.20;67.20;;;;;;4983031;28;20046;-81
2021/05/12 02:17:40;;;;;;;4.38;1.38;;;9.10;67.20;;;;;;5000618;28;20042;-81
2021/05/12 02:20:09;;;;;;;5.75;1.60;;;9.10;67.10;;;;;;4999969;28;20557;-80
2021/05/12 02:22:35;;;;;;;3.40;1.20;;;9.00;66.60;;;;;;4981015;28;20513;-80
2021/05/12 02:25:00;;;;;;;5.90;1.30;;;9.00;67.30;;;;;;4999366;28;20034;-80
2021/05/12 02:27:26;;;;;;;5.13;1.73;;;8.90;67.70;;;;;;5000453;28;20037;-80
2021/05/12 02:29:52;;;;;;;3.90;1.30;;;8.90;67.20;;;;;;4999373;28;20034;-80
2021/05/12 02:32:18;;;;;;;5.75;1.52;;;8.90;67.40;;;;;;4999709;28;20022;-80
2021/05/12 02:34:44;;;;;;;5.18;1.50;;;8.90;67.60;;;;;;4999755;28;20042;-80
2021/05/12 02:37:09;;;;;;;8.77;1.80;;;8.90;67.30;;;;;;5000238;28;20019;-79
2021/05/12 02:39:35;;;;;;;6.20;1.45;;;8.90;67.10;;;;;;5000225;28;20073;-80
2021/05/12 02:42:01;;;;;;;4.20;1.63;;;8.90;66.50;;;;;;4999802;28;20031;-80
2021/05/12 02:44:27;;;;;;;6.40;1.90;;;8.90;66.20;;;;;;4999743;28;20408;-79
2021/05/12 02:46:52;;;;;;;3.92;1.73;;;8.90;66.90;;;;;;4999887;28;20378;-79
2021/05/12 02:49:18;;;;;;;5.88;1.50;;;8.90;67.80;;;;;;5000161;28;20033;-79
2021/05/12 02:51:44;;;;;;;4.43;1.50;;;8.90;67.40;;;;;;4998935;28;20061;-79
2021/05/12 02:54:10;;;;;;;4.05;1.30;;;8.90;67.40;;;;;;4999278;28;20086;-79
2021/05/12 02:56:36;;;;;;;6.15;1.70;;;9.00;67.00;;;;;;5000144;28;20073;-79
2021/05/12 02:59:02;;;;;;;3.83;1.50;;;9.00;66.80;;;;;;4982172;28;20477;-79
2021/05/12 03:01:28;;;;;;;5.47;1.75;;;9.10;67.30;;;;;;4981544;28;20027;-79
2021/05/12 03:03:54;;;;;;;7.22;2.00;;;9.10;68.50;;;;;;4999476;28;20061;-80
2021/05/12 03:06:19;;;;;;;5.28;1.88;;;9.20;69.00;;;;;;4999898;28;20029;-79
2021/05/12 03:08:45;;;;;;;5.05;1.73;;;9.20;69.60;;;;;;4994281;28;20490;-79
2021/05/12 03:11:11;;;;;;;6.47;1.90;;;9.10;69.50;;;;;;4991386;28;20030;-79
2021/05/12 03:13:37;;;;;;;5.60;2.13;;;9.20;69.50;;;;;;4999440;28;20026;-79
2021/05/12 03:16:03;;;;;;;10.05;2.45;;;9.20;69.30;;;;;;4981894;28;20014;-79
2021/05/12 03:18:29;;;;;;;4.80;1.42;;;9.20;68.30;;;;;;4999213;28;20041;-79
2021/05/12 03:20:55;;;;;;;4.65;1.55;;;9.20;67.70;;;;;;4999129;28;20501;-79
2021/05/12 03:23:21;;;;;;;5.63;1.45;;;9.20;67.10;;;;;;4998880;28;20022;-79
2021/05/12 03:25:47;;;;;;;8.30;1.80;;;9.30;67.30;;;;;;4998641;28;20073;-79
2021/05/12 03:28:13;;;;;;;6.75;1.73;;;9.30;67.20;;;;;;4999306;28;20504;-79
2021/05/12 03:30:39;;;;;;;5.60;1.60;;;9.30;66.70;;;;;;4998534;28;20054;-78
2021/05/12 03:33:07;;;;;;;4.88;2.13;;;9.30;66.80;;;;;;4998706;28;20512;-78
2021/05/12 03:35:35;;;;;;;4.95;1.73;;;9.40;66.50;;;;;;4998066;28;20038;-78
2021/05/12 03:38:01;;;;;;;7.20;2.17;;;9.40;66.90;;;;;;4998796;28;20084;-79
2021/05/12 03:40:28;;;;;;;5.13;1.90;;;9.40;67.20;;;;;;4998475;28;20034;-79
2021/05/12 03:42:56;;;;;;;6.35;2.38;;;9.40;68.10;;;;;;4998737;28;20037;-79
2021/05/12 03:45:22;;;;;;;6.15;2.28;;;9.30;68.40;;;;;;4998388;28;20025;-79
2021/05/12 03:47:49;;;;;;;10.13;2.50;;;9.40;68.90;;;;;;4998799;28;20026;-79
2021/05/12 03:50:15;;;;;;;5.70;2.00;;;9.40;68.90;;;;;;4998282;28;20049;-79
2021/05/12 03:52:41;;;;;;;4.40;1.95;;;9.40;68.60;;;;;;4998778;28;20040;-79
2021/05/12 03:55:08;;;;;;;7.00;2.63;;;9.40;68.20;;;;;;4997661;28;20062;-79
2021/05/12 03:57:35;;;;;;;4.85;1.63;;;9.40;68.90;;;;;;4998655;28;20022;-80
2021/05/12 04:00:01;;;;;;;6.63;1.90;;;9.40;68.70;;;;;;4980325;28;20497;-80
2021/05/12 04:02:26;;;;;;;8.95;2.25;;;9.40;68.80;;;;;;4997733;28;20084;-80
2021/05/12 04:04:52;;;;;;;5.75;1.58;;;9.40;69.00;;;;;;4998179;28;20034;-80
2021/05/12 04:07:18;;;;;;;5.18;1.73;;;9.40;68.50;;;;;;4998385;28;20035;-79
2021/05/12 04:09:44;;;;;;;6.68;2.05;;;9.40;68.00;;;;;;4998732;28;20022;-79
2021/05/12 04:12:10;;;;;;;6.78;1.70;;;9.40;67.60;;;;;;4997485;28;20037;-80
2021/05/12 04:14:35;;;;;;;5.13;1.83;;;9.50;68.90;;;;;;4998265;28;20020;-80
2021/05/12 04:17:02;;;;;;;5.32;1.60;;;9.50;68.00;;;;;;4998113;28;20034;-80
2021/05/12 04:19:28;;;;;;;4.80;1.52;;;9.40;67.50;;;;;;4980906;28;20033;-80
2021/05/12 04:21:54;;;;;;;7.15;2.17;;;9.40;67.60;;;;;;4997469;28;20086;-80
2021/05/12 04:24:20;;;;;;;8.52;2.10;;;9.50;68.20;;;;;;4997766;28;20033;-80
2021/05/12 04:26:46;;;;;;;6.03;2.40;;;9.50;68.10;;;;;;4980294;28;20034;-79
2021/05/12 04:29:12;;;;;;;5.88;1.77;;;9.50;68.00;;;;;;4998126;28;20370;-79
2021/05/12 04:31:39;;;;;;;8.43;1.95;;;9.50;68.30;;;;;;4997550;28;20520;-79
2021/05/12 04:34:05;;;;;;;4.97;1.60;;;9.40;68.40;;;;;;4997798;28;20018;-80
2021/05/12 04:36:30;;;;;;;5.30;1.98;;;9.40;68.50;;;;;;4997730;28;20390;-80
2021/05/12 04:38:56;;;;;;;5.68;1.70;;;9.40;69.10;;;;;;4997670;28;20026;-80
2021/05/12 04:41:22;;;;;;;6.75;1.60;;;9.30;68.50;;;;;;4997308;28;20030;-79
2021/05/12 04:43:48;;;;;;;6.57;2.10;;;9.30;68.40;;;;;;4997574;28;20026;-79
2021/05/12 04:46:14;;;;;;;5.38;1.98;;;9.30;68.20;;;;;;4997063;28;20062;-80
2021/05/12 04:48:40;;;;;;;4.15;1.70;;;9.40;68.30;;;;;;4997757;28;20390;-79
2021/05/12 04:51:06;;;;;;;5.72;2.00;;;9.40;67.60;;;;;;4997227;28;20030;-79
2021/05/12 04:53:33;;;;;;;5.75;2.03;;;9.40;68.00;;;;;;4980374;28;20025;-80
2021/05/12 04:55:58;;;;;;;5.88;1.90;;;9.50;67.60;;;;;;4997273;28;20045;-82
2021/05/12 04:58:24;;;;;;;6.97;1.98;;;9.50;67.40;;;;;;4980009;28;20022;-79
2021/05/12 05:00:50;;;;;;;4.90;1.33;;;9.60;67.80;;;;;;4997316;28;20116;-74
2021/05/12 05:03:16;;;;;;;4.50;1.55;;;9.60;67.00;;;;;;4997849;28;20026;-74
2021/05/12 05:05:42;;;;;;;5.88;2.00;;;9.70;66.60;;;;;;4979743;28;20106;-72
2021/05/12 05:08:08;;;;;;;4.28;1.55;;;9.70;66.40;;;;;;4997244;28;20030;-73
2021/05/12 05:10:33;;;;;;;7.20;1.95;;;9.70;66.50;;;;;;4979635;28;20117;-74
2021/05/12 05:12:59;;;;;;;5.00;1.63;;;9.80;66.30;;;;;;4997579;28;20022;-74
2021/05/12 05:15:25;;;;;;;5.22;1.63;;;9.90;66.10;;;;;;4997032;28;20065;-75
2021/05/12 05:17:52;;;;;;;3.63;1.45;;;9.90;65.90;;;;;;4997428;28;20039;-73
2021/05/12 05:20:19;;;;;;;4.25;1.60;;;9.90;65.60;;;;;;4997004;28;20573;-73
2021/05/12 05:22:45;;;;;;;5.40;1.50;;;10.00;65.60;;;;;;4979343;28;20092;-73
2021/05/12 05:25:11;;;;;;;4.57;1.60;;;10.00;65.70;;;;;;4979529;28;20034;-73
2021/05/12 05:27:37;;;;;;;6.18;2.00;;;10.00;66.30;;;;;;4997389;28;20027;-73
2021/05/12 05:30:03;;;;;;;6.38;2.22;;;10.00;66.60;;;;;;4997124;28;20023;-75
2021/05/12 05:32:29;;;;;;;5.03;2.17;;;10.10;67.80;;;;;;4984509;28;20042;-78
2021/05/12 05:34:55;;;;;;;7.38;1.98;;;10.10;68.50;;;;;;4996409;28;20477;-76
2021/05/12 05:37:24;;;;;;;5.35;1.92;;;10.10;68.30;;;;;;4996183;28;20389;-74
2021/05/12 05:39:51;;;;;;;4.18;1.67;;;10.10;68.40;;;;;;4996998;28;20094;-75
2021/05/12 05:42:17;;;;;;;5.95;2.08;;;10.20;68.40;;;;;;4997413;28;20026;-74
2021/05/12 05:44:43;;;;;;;4.88;1.90;;;10.30;68.40;;;;;;4996748;28;20094;-74
2021/05/12 05:47:09;;;;;;;5.90;2.03;;;10.30;69.00;;;;;;4997277;28;20134;-74
2021/05/12 05:49:35;;;;;;;7.60;2.28;;;10.40;68.30;;;;;;4996565;28;20031;-74
2021/05/12 05:52:02;;;;;;;7.65;3.70;;;10.40;68.70;;;;;;4996903;28;20493;-74
2021/05/12 05:54:28;;;;;;;13.35;9.65;;;10.50;69.60;;;;;;4996732;28;20106;-75
2021/05/12 05:56:54;;;;;;;11.27;5.93;;;10.60;69.00;;;;;;4996376;28;20046;-74
2021/05/12 05:59:20;;;;;;;8.20;3.97;;;10.60;69.10;;;;;;4982659;28;20077;-75
2021/05/12 06:01:46;;;;;;;5.15;2.53;;;10.70;69.30;;;;;;5000645;28;20049;-76
2021/05/12 06:04:12;;;;;;;7.35;2.67;;;10.70;69.40;;;;;;5000913;28;20065;-75
2021/05/12 06:06:38;;;;;;;5.35;1.95;;;10.70;69.30;;;;;;5000923;28;20035;-76
2021/05/12 06:09:04;;;;;;;7.97;2.13;;;10.80;69.30;;;;;;5000904;28;20078;-76
2021/05/12 06:11:30;;;;;;;5.20;1.80;;;10.80;69.50;;;;;;5000910;28;20090;-76
2021/05/12 06:13:56;;;;;;;5.45;2.05;;;10.80;69.90;;;;;;5000805;28;20030;-76
2021/05/12 06:16:22;;;;;;;7.18;2.17;;;10.80;69.20;;;;;;4995501;28;20378;-75
2021/05/12 06:18:51;;;;;;;6.07;2.00;;;10.90;70.40;;;;;;4999764;28;20033;-75
2021/05/12 06:21:16;;;;;;;6.68;2.20;;;10.90;70.20;;;;;;4998441;28;20444;-76
2021/05/12 06:23:42;;;;;;;7.85;2.63;;;10.90;70.10;;;;;;4999534;28;20026;-76
2021/05/12 06:26:16;;;;;;;7.60;2.58;;;10.90;71.50;;;;;;5000260;28;20065;-76
2021/05/12 06:28:44;;;;;;;6.43;2.47;;;10.90;71.70;;;;;;5000377;28;20053;-76
2021/05/12 06:31:10;;;;;;;6.75;2.80;;;10.90;72.30;;;;;;5000355;28;20070;-76
2021/05/12 06:33:38;;;;;;;5.78;2.17;;;11.00;72.00;;;;;;5000420;28;20034;-75
2021/05/12 06:36:05;;;;;;;8.18;2.30;;;10.90;71.50;;;;;;5000310;28;20026;-75
2021/05/12 06:38:31;;;;;;;5.65;2.20;;;11.00;71.30;;;;;;4979148;28;20041;-75
2021/05/12 06:40:57;;;;;;;7.78;2.75;;;11.00;72.00;;;;;;4991461;28;20023;-76
2021/05/12 06:43:23;;;;;;;6.30;2.38;;;11.10;72.60;;;;;;5000023;28;20025;-76
2021/05/12 06:45:49;;;;;;;5.40;2.10;;;11.00;73.50;;;;;;5000225;28;20023;-76
2021/05/12 06:48:15;;;;;;;7.00;2.30;;;11.10;72.30;;;;;;4999788;28;20050;-76
2021/05/12 06:50:40;;;;;;;8.93;2.60;;;11.10;72.00;;;;;;4993348;28;20015;-76
2021/05/12 06:53:06;;;;;;;5.70;2.58;;;11.10;72.30;;;;;;4993419;28;20026;-76
2021/05/12 06:55:32;;;;;;;8.82;2.40;;;11.10;72.40;;;;;;5000064;28;20019;-76
2021/05/12 06:57:58;;;;;;;7.80;2.65;;;11.20;72.90;;;;;;4999658;28;20035;-76
2021/05/12 07:00:24;;;;;;;5.22;2.45;;;11.20;73.50;;;;;;4999802;28;20023;-76
2021/05/12 07:02:50;;;;;;;6.15;2.13;;;11.20;72.90;;;;;;4999771;28;20027;-76
2021/05/12 07:05:17;;;;;;;7.45;2.65;;;11.20;73.30;;;;;;4999219;28;20023;-76
2021/05/12 07:07:43;;;;;;;8.20;2.20;;;11.30;73.00;;;;;;4999260;28;20026;-76
2021/05/12 07:10:10;;;;;;;6.88;2.50;;;11.30;73.30;;;;;;4999079;28;20611;-76
2021/05/12 07:12:36;;;;;;;6.57;2.20;;;11.40;74.00;;;;;;4999147;28;20062;-77
2021/05/12 07:15:07;;;;;;;6.85;2.55;;;11.40;73.80;;;;;;4999560;28;20026;-76
2021/05/12 07:17:33;;;;;;;4.43;1.88;;;11.50;74.10;;;;;;4999124;28;20039;-76
2021/05/12 07:19:59;;;;;;;6.72;2.20;;;11.50;74.20;;;;;;4981679;28;20026;-76
2021/05/12 07:22:26;;;;;;;6.85;2.60;;;11.60;74.10;;;;;;4998797;28;20026;-77
2021/05/12 07:24:52;;;;;;;4.93;2.40;;;11.60;74.30;;;;;;4981805;28;20030;-76
2021/05/12 07:27:19;;;;;;;5.25;2.28;;;11.70;74.30;;;;;;4981191;28;21533;-76
2021/05/12 07:29:45;;;;;;;5.40;2.42;;;11.70;74.10;;;;;;4999068;28;20030;-77
2021/05/12 07:32:11;;;;;;;5.00;2.13;;;11.80;74.20;;;;;;4980846;28;20049;-76
2021/05/12 07:34:37;;;;;;;8.48;2.75;;;11.90;74.00;;;;;;4998883;28;20418;-76
2021/05/12 07:37:04;;;;;;;4.68;2.10;;;12.00;73.90;;;;;;4999086;28;20034;-76
2021/05/12 07:39:31;;;;;;;6.10;2.25;;;12.00;73.90;;;;;;4981813;28;20385;-76
2021/05/12 07:42:01;;;;;;;5.25;2.08;;;12.10;73.50;;;;;;4981347;28;20022;-76
2021/05/12 07:44:27;;;;;;;6.07;2.85;;;12.20;74.00;;;;;;4998607;28;20031;-76
2021/05/12 07:46:53;;;;;;;5.68;2.20;;;12.20;73.80;;;;;;4998361;28;20081;-76
2021/05/12 07:49:19;;;;;;;4.40;2.05;;;12.30;74.10;;;;;;4998764;28;20366;-76
2021/05/12 07:51:45;;;;;;;5.18;1.90;;;12.30;74.20;;;;;;4985496;28;20026;-76
2021/05/12 07:54:11;;;;;;;5.47;2.28;;;12.30;73.50;;;;;;4998052;28;20041;-76
2021/05/12 07:56:37;;;;;;;4.25;2.00;;;12.30;74.30;;;;;;4998620;28;20501;-76
2021/05/12 07:59:03;;;;;;;5.53;2.22;;;12.40;73.90;;;;;;4998714;28;20080;-76
2021/05/12 08:01:32;;;;;;;5.63;1.92;;;12.40;73.80;;;;;;4998251;28;20037;-76
2021/05/12 08:03:58;;;;;;;3.85;1.90;;;12.40;73.80;;;;;;4998683;28;20023;-77
2021/05/12 08:06:24;;;;;;;4.47;1.98;;;12.50;73.20;;;;;;4998248;28;20057;-76
2021/05/12 08:08:50;;;;;;;5.82;2.15;;;12.60;73.40;;;;;;4998201;28;20057;-76
2021/05/12 08:11:16;;;;;;;4.57;1.90;;;12.70;73.70;;;;;;4980654;28;20038;-76
2021/05/12 08:13:42;;;;;;;4.85;2.35;;;12.80;73.90;;;;;;4998409;28;20018;-76
2021/05/12 08:16:08;;;;;;;3.53;1.70;;;12.80;73.70;;;;;;4998152;28;20019;-76
2021/05/12 08:18:33;;;;;;;4.57;2.00;;;12.90;73.10;;;;;;4998416;28;20093;-76
2021/05/12 08:21:00;;;;;;;4.57;1.92;;;12.90;73.30;;;;;;4997806;28;20022;-76
2021/05/12 08:23:26;;;;;;;3.60;1.88;;;13.00;72.70;;;;;;4980069;28;20058;-77
2021/05/12 08:25:52;;;;;;;3.67;1.83;;;13.00;73.00;;;;;;4998138;28;20034;-76
2021/05/12 08:28:18;;;;;;;3.85;1.63;;;13.10;72.80;;;;;;4998086;28;20558;-76
2021/05/12 08:30:47;;;;;;;4.50;1.70;;;13.00;72.70;;;;;;4997962;28;20053;-76
2021/05/12 08:33:15;;;;;;;3.42;1.77;;;13.10;72.60;;;;;;4997596;28;20054;-76
2021/05/12 08:35:44;;;;;;;3.60;1.10;;;13.10;72.80;;;;;;4997600;28;20030;-76
2021/05/12 08:38:24;;;;;;;4.70;1.58;;;13.20;72.60;;;;;;4997700;28;20150;-76
2021/05/12 08:40:53;;;;;;;3.78;1.63;;;13.30;72.70;;;;;;4998131;28;20030;-76
2021/05/12 08:43:19;;;;;;;3.33;1.40;;;13.40;72.60;;;;;;4997690;28;20176;-76
2021/05/12 08:45:46;;;;;;;2.42;1.23;;;13.60;72.70;;;;;;4976970;28;20038;-76
2021/05/12 08:48:16;;;;;;;2.80;1.23;;;13.70;72.50;;;;;;4992714;28;20090;-76
2021/05/12 08:50:44;;;;;;;3.40;1.13;;;13.90;71.80;;;;;;4990770;28;20497;-76
2021/05/12 08:53:10;;;;;;;2.75;1.25;;;14.00;71.50;;;;;;4991525;28;20057;-76
2021/05/12 08:55:36;;;;;;;3.28;1.40;;;14.10;71.20;;;;;;4997988;28;20030;-76
2021/05/12 08:58:02;;;;;;;24.17;21.58;;;14.10;70.70;;;;;;4997809;28;20492;-77
2021/05/12 09:00:28;;;;;;;9.52;6.90;;;14.10;70.60;;;;;;4998098;28;20022;-76
2021/05/12 09:02:57;;;;;;;4.13;2.30;;;14.20;70.30;;;;;;4997470;28;20019;-76
2021/05/12 09:05:24;;;;;;;2.83;1.50;;;14.20;69.80;;;;;;4997449;28;20034;-76
2021/05/12 09:07:50;;;;;;;2.30;1.10;;;14.20;69.60;;;;;;4997274;28;20028;-77
2021/05/12 09:10:16;;;;;;;2.72;1.30;;;14.10;69.50;;;;;;4997633;28;20041;-76
2021/05/12 09:12:52;;;;;;;2.85;1.08;;;14.10;69.60;;;;;;4997333;28;20035;-77
2021/05/12 09:15:21;;;;;;;3.67;1.50;;;14.00;69.50;;;;;;4997289;28;20022;-76
2021/05/12 09:17:49;;;;;;;2.78;1.27;;;13.90;69.80;;;;;;4979773;28;20092;-77
2021/05/12 09:20:21;;;;;;;2.90;1.20;;;13.90;70.60;;;;;;4996911;28;20021;-76
2021/05/12 09:22:50;;;;;;;;;;;14.00;71.00;;;;;;4997522;28;20519;-76
2021/05/12 09:25:18;;;;;;;2.58;1.30;;;14.10;71.30;;;;;;4997643;28;19910;-76
2021/05/12 09:27:49;;;;;;;4.22;1.20;;;14.30;71.10;;;;;;4997413;28;20037;-77
2021/05/12 09:30:21;;;;;;;2.45;1.10;;;14.30;70.50;;;;;;4997350;28;20396;-77
2021/05/12 09:32:48;;;;;;;3.22;1.33;;;14.30;70.30;;;;;;4986694;28;20061;-76
2021/05/12 09:35:15;;;;;;;2.78;1.13;;;14.20;70.10;;;;;;5000816;28;20031;-76
2021/05/12 09:37:44;;;;;;;2.78;1.30;;;14.10;70.00;;;;;;5000681;28;20023;-76
2021/05/12 09:40:18;;;;;;;4.15;1.40;;;14.00;70.20;;;;;;5001212;28;20032;-77
2021/05/12 09:42:45;;;;;;;2.47;1.23;;;14.00;70.30;;;;;;5001206;28;20171;-76
2021/05/12 09:45:20;;;;;;;2.95;1.52;;;14.00;70.20;;;;;;5001031;28;20053;-76
2021/05/12 09:47:58;;;;;;;2.92;1.60;;;14.00;69.90;;;;;;5000914;28;20062;-77
2021/05/12 09:50:37;;;;;;;3.80;1.63;;;14.00;70.10;;;;;;4996890;28;20023;-76
2021/05/12 09:53:11;;;;;;;4.70;1.70;;;14.00;70.40;;;;;;4993772;28;20026;-76
2021/05/12 09:55:39;;;;;;;4.47;1.90;;;14.00;70.70;;;;;;5001082;28;20054;-76
2021/05/12 09:58:04;;;;;;;4.32;1.88;;;14.00;71.00;;;;;;5000702;28;20033;-76
2021/05/12 10:00:35;;;;;;;3.88;1.75;;;14.00;70.70;;;;;;5001120;28;20397;-76
2021/05/12 10:03:04;;;;;;;4.43;1.60;;;14.00;70.90;;;;;;5000332;28;20026;-76
2021/05/12 10:05:52;;;;;;;4.50;1.80;;;14.00;71.00;;;;;;4979705;28;20058;-76
2021/05/12 10:08:24;;;;;;;4.63;1.98;;;14.00;71.10;;;;;;4999100;28;20023;-76
2021/05/12 10:10:57;;;;;;;4.05;2.00;;;14.00;72.10;;;;;;5001015;28;20367;-76
2021/05/12 10:13:24;;;;;;;5.18;1.90;;;13.90;71.20;;;;;;5000676;28;20030;-76
2021/05/12 10:15:50;;;;;;;4.22;2.22;;;13.90;71.60;;;;;;5000392;28;20029;-76
2021/05/12 10:18:16;;;;;;;4.43;1.90;;;13.80;71.90;;;;;;5000205;28;20050;-76
2021/05/12 10:20:42;;;;;;;3.78;1.70;;;13.80;71.90;;;;;;5000143;28;20076;-76
2021/05/12 10:23:08;;;;;;;3.92;1.58;;;13.80;72.00;;;;;;4999779;28;20101;-77
2021/05/12 10:25:37;;;;;;;3.65;1.48;;;13.80;71.30;;;;;;5000657;28;20027;-76
2021/05/12 10:28:03;;;;;;;3.30;1.38;;;13.80;71.30;;;;;;5000578;28;20040;-76
2021/05/12 10:30:30;;;;;;;3.78;1.73;;;13.80;71.20;;;;;;5000423;28;20022;-77
2021/05/12 10:32:58;;;;;;;3.67;1.30;;;13.80;71.00;;;;;;4983015;28;20034;-77
2021/05/12 10:35:38;;;;;;;4.30;1.65;;;13.80;70.80;;;;;;4999762;28;20022;-76
2021/05/12 10:38:08;;;;;;;3.38;1.35;;;13.90;70.80;;;;;;5000044;28;20469;-76
2021/05/12 10:40:39;;;;;;;3.58;1.35;;;13.90;70.60;;;;;;5000309;28;20048;-76
2021/05/12 10:43:25;;;;;;;4.05;1.80;;;13.90;70.80;;;;;;5000067;28;20038;-76
2021/05/12 10:45:58;;;;;;;3.38;1.58;;;14.00;70.90;;;;;;4999102;28;20041;-76
2021/05/12 10:48:27;;;;;;;;;;;14.00;70.70;;;;;;5000038;28;20401;-76
2021/05/12 10:50:53;;;;;;;3.60;1.58;;;14.00;70.60;;;;;;4991403;28;19913;-76
2021/05/12 10:53:35;;;;;;;3.97;1.70;;;14.00;70.50;;;;;;4993869;28;20399;-76
2021/05/12 10:56:04;;;;;;;2.10;1.10;;;13.90;70.70;;;;;;4999978;28;20022;-77
2021/05/12 10:58:31;;;;;;;5.95;3.75;;;14.00;71.40;;;;;;4999661;28;20030;-76
2021/05/12 11:01:07;;;;;;;6.20;4.65;;;14.20;71.90;;;;;;4999650;28;20046;-77
2021/05/12 11:03:52;;;;;;;3.88;2.38;;;14.40;71.40;;;;;;4995546;28;20023;-75
2021/05/12 11:06:33;;;;;;;3.78;1.67;;;14.60;70.80;;;;;;4996508;28;20112;-73
2021/05/12 11:09:25;;;;;;;4.60;2.10;;;14.80;70.30;;;;;;4996770;28;20030;-75
2021/05/12 11:11:55;;;;;;;9.18;7.70;;;15.10;69.30;;;;;;4997739;28;20074;-76
2021/05/12 11:14:35;;;;;;;5.13;3.45;;;15.30;68.80;;;;;;4996267;28;20041;-76
2021/05/12 11:17:04;;;;;;;3.85;1.65;;;15.60;67.70;;;;;;4996395;28;20517;-79
2021/05/12 11:19:43;;;;;;;3.53;1.30;;;15.70;67.20;;;;;;4995341;28;20388;-79
2021/05/12 11:22:37;;;;;;;3.78;1.50;;;15.60;66.20;;;;;;4997932;28;20029;-78
2021/05/12 11:25:22;;;;;;;4.32;1.45;;;15.60;66.60;;;;;;4994800;28;20038;-80
2021/05/12 11:33:33;;;;;;;3.05;1.20;;;15.70;64.80;;;;;;4998611;28;20049;-80
2021/05/12 11:36:03;;;;;;;3.40;1.27;;;15.70;64.50;;;;;;4995337;28;20524;-82
2021/05/12 11:38:30;;;;;;;4.28;1.55;;;15.60;64.60;;;;;;4980451;28;20030;-81
2021/05/12 11:41:11;;;;;;;2.90;1.27;;;15.60;64.20;;;;;;4998445;28;20446;-78
2021/05/12 11:43:44;;;;;;;3.58;1.60;;;15.40;64.10;;;;;;4997946;28;20033;-80
2021/05/12 11:46:28;;;;;;;4.65;1.30;;;15.40;64.50;;;;;;4998454;28;20080;-81
2021/05/12 11:49:05;;;;;;;4.05;1.65;;;15.40;64.40;;;;;;4992507;28;20026;-75
2021/05/12 11:51:35;;;;;;;3.05;1.35;;;15.50;64.40;;;;;;4985587;28;20054;-78
2021/05/12 11:54:04;;;;;;;2.78;1.20;;;15.70;64.00;;;;;;4997303;28;20023;-77
2021/05/12 11:56:31;;;;;;;3.38;1.20;;;15.80;63.60;;;;;;4996906;28;20026;-80
2021/05/12 11:59:03;;;;;;;3.35;1.20;;;15.90;63.30;;;;;;4998454;28;20029;-76
2021/05/12 12:01:33;;;;;;;3.03;1.00;;;16.00;62.90;;;;;;4998033;28;20061;-87
2021/05/12 12:06:29;;;;;;;2.55;1.00;;;16.00;62.50;;;;;;4997872;28;20027;-79
2021/05/12 12:08:55;;;;;;;3.30;1.20;;;16.00;62.60;;;;;;4998050;28;20030;-78
2021/05/12 12:11:21;;;;;;;3.85;1.23;;;16.10;62.30;;;;;;4980730;28;20037;-73
2021/05/12 12:13:58;;;;;;;7.65;6.63;;;16.10;61.90;;;;;;4997817;28;20475;-76
2021/05/12 12:16:23;;;;;;;9.90;7.35;;;16.10;61.70;;;;;;4997206;28;20076;-78
2021/05/12 12:18:50;;;;;;;4.65;1.35;;;16.10;61.20;;;;;;4998088;28;20057;-77
2021/05/12 12:21:34;;;;;;;3.67;1.38;;;16.00;61.30;;;;;;4975386;28;20022;-76
2021/05/12 12:24:12;;;;;;;3.78;1.42;;;16.10;61.60;;;;;;4997024;28;20033;-77
2021/05/12 12:26:41;;;;;;;3.42;1.10;;;16.20;61.40;;;;;;4998148;28;20022;-76
2021/05/12 12:29:07;;;;;;;3.28;1.23;;;16.30;61.60;;;;;;4997846;28;20029;-77
2021/05/12 12:31:50;;;;;;;2.45;1.10;;;16.60;61.80;;;;;;4998264;28;20022;-77
2021/05/12 12:34:30;;;;;;;4.57;1.40;;;16.90;61.70;;;;;;4998064;28;20078;-77
2021/05/12 12:37:16;;;;;;;2.38;1.00;;;17.20;61.30;;;;;;4998094;28;20014;-76
2021/05/12 12:39:55;;;;;;;3.45;1.02;;;17.40;61.10;;;;;;4990335;28;20023;-77
2021/05/12 12:42:33;;;;;;;4.93;1.45;;;17.60;60.50;;;;;;4985416;28;20508;-77
2021/05/12 12:45:02;;;;;;;3.15;1.08;;;17.60;59.90;;;;;;4997701;28;20037;-77
2021/05/12 12:47:28;;;;;;;3.35;1.10;;;17.70;59.10;;;;;;4998119;28;20033;-77
2021/05/12 12:50:06;;;;;;;2.67;1.02;;;17.60;58.20;;;;;;4997421;28;20038;-76
2021/05/12 12:52:33;;;;;;;2.50;0.90;;;17.70;58.30;;;;;;4986530;28;20022;-77
2021/05/12 12:55:05;;;;;;;3.67;1.27;;;17.60;57.80;;;;;;4997772;28;20027;-77
2021/05/12 12:57:39;;;;;;;;;;;17.50;57.90;;;;;;4998177;28;20037;-77
2021/05/12 13:00:12;;;;;;;4.38;1.10;;;17.40;58.00;;;;;;4997195;28;19909;-76
2021/05/12 13:02:39;;;;;;;3.17;1.20;;;17.30;58.50;;;;;;4997740;28;20489;-77
2021/05/12 13:05:12;;;;;;;3.65;1.25;;;17.40;59.80;;;;;;4997366;28;20040;-77